Latest Coastal Weather Observations for Adele Island

IDW60701

Issued at 12:52 pm WST Sunday 30 April 2017 (issued every 10 minutes, with the page automatically refreshed every 10 minutes)

About coastal observations | Map of coastal stations | Coastal observations for WA | Marine services | Other Formats
Station Details ID: 200735 Name: ADELE ISLAND Lat: -15.51 Lon: 123.16 Height: 4.6 m
Data from the previous 72 hours. | See also: Recent months at Adele Island
Date/Time
WST
Temp
°C
Wind Pressure Rain since
9am
mm
Weather Cloud Vis
km
Sea
Height
m
Swell
Dir  Spd
kts
Gust
kts
hPa Trend Height
m
Period
s
Dir
30/12:30pm - SSE 15 18 1012.3 - - - - - - - - -
30/12:00pm - SSE 14 18 1012.7 - - - - - - - - -
30/11:30am - SSE 12 15 1013.0 - - - - - - - - -
30/11:00am - ESE 10 17 1013.4 - - - - - - - - -
30/10:30am - ESE 11 19 1013.4 - - - - - - - - -
30/10:00am - SE 12 16 1013.7 - - - - - - - - -
30/09:30am - SE 13 16 1013.9 - - - - - - - - -
30/09:00am - ENE 18 25 1013.8 - - - - - - - - -
30/08:54am - E 14 22 1013.8 - - - - - - - - -
30/08:30am - SE 9 11 1013.6 - - - - - - - - -
30/08:00am - ESE 9 12 1013.5 - - - - - - - - -
30/07:30am - SE 8 10 1013.4 - - - - - - - - -
30/07:00am - ESE 11 14 1013.1 - - - - - - - - -
30/06:30am - E 11 15 1012.8 - - - - - - - - -
30/06:00am - ENE 15 18 1012.6 - - - - - - - - -
30/05:30am - NE 18 23 1012.5 - - - - - - - - -
30/05:00am - ENE 12 15 1012.0 - - - - - - - - -
30/04:30am - E 12 15 1011.8 - - - - - - - - -
30/04:00am - ENE 14 17 1011.8 - - - - - - - - -
30/03:30am - ENE 15 19 1012.0 - - - - - - - - -
30/03:00am - E 15 18 1012.0 - - - - - - - - -
30/02:30am - ESE 14 18 1011.8 - - - - - - - - -
30/02:00am - E 14 18 1012.2 - - - - - - - - -
30/01:30am - E 14 18 1012.4 - - - - - - - - -
30/01:00am - E 14 17 1012.6 - - - - - - - - -
30/12:30am - E 15 17 1012.6 - - - - - - - - -
30/12:00am - ENE 16 19 1012.8 - - - - - - - - -
 
Date/Time
WST
Temp
°C
Wind Pressure Rain since
9am
mm
Weather Cloud Vis
km
Sea
Height
m
Swell
Dir  Spd
kts
Gust
kts
hPa Trend Height
m
Period
s
Dir
29/11:30pm - E 15 19 1012.8 - - - - - - - - -
29/11:00pm - E 14 17 1012.9 - - - - - - - - -
29/10:30pm - E 14 17 1013.0 - - - - - - - - -
29/10:00pm - E 15 20 1013.3 - - - - - - - - -
29/09:30pm - E 13 19 1013.5 - - - - - - - - -
29/09:00pm - E 13 17 1013.6 - - - - - - - - -
29/08:30pm - ENE 15 19 1013.8 - - - - - - - - -
29/08:00pm - ENE 13 16 1013.6 - - - - - - - - -
29/07:30pm - E 13 15 1013.3 - - - - - - - - -
29/07:00pm - E 12 15 1013.0 - - - - - - - - -
29/06:30pm - E 12 14 1012.7 - - - - - - - - -
29/06:00pm - ESE 11 15 1012.5 - - - - - - - - -
29/05:30pm - E 11 14 1012.3 - - - - - - - - -
29/05:00pm - ESE 12 14 1012.2 - - - - - - - - -
29/04:30pm - E 12 16 1011.9 - - - - - - - - -
29/04:00pm - ESE 11 13 1011.5 - - - - - - - - -
29/03:30pm - SE 7 9 1011.5 - - - - - - - - -
29/03:00pm - SSE 7 9 1011.7 - - - - - - - - -
29/02:30pm - ESE 11 17 1011.6 - - - - - - - - -
29/02:00pm - E 12 15 1011.4 - - - - - - - - -
29/01:30pm - E 13 18 1011.3 - - - - - - - - -
29/01:00pm - E 14 17 1011.2 - - - - - - - - -
29/12:30pm - E 13 16 1011.4 - - - - - - - - -
29/12:00pm - E 12 16 1011.7 - - - - - - - - -
29/11:30am - E 12 18 1011.7 - - - - - - - - -
29/11:00am - E 13 16 1012.0 - - - - - - - - -
29/10:30am - ESE 13 16 1012.2 - - - - - - - - -
29/10:00am - ESE 12 18 1012.4 - - - - - - - - -
29/09:30am - ESE 12 17 1012.7 - - - - - - - - -
29/09:00am - ESE 13 17 1012.6 - - - - - - - - -
29/08:30am - ESE 13 17 1012.5 - - - - - - - - -
29/08:00am - ESE 13 15 1012.5 - - - - - - - - -
29/07:30am - ESE 12 15 1012.1 - - - - - - - - -
29/07:00am - ESE 12 15 1011.9 - - - - - - - - -
29/06:30am - E 13 17 1011.4 - - - - - - - - -
29/06:00am - E 13 16 1011.3 - - - - - - - - -
29/05:30am - E 15 18 1011.0 - - - - - - - - -
29/05:00am - E 16 20 1010.8 - - - - - - - - -
29/04:30am - ESE 15 19 1010.4 - - - - - - - - -
29/04:00am - E 14 17 1010.3 - - - - - - - - -
29/03:30am - E 14 19 1010.3 - - - - - - - - -
29/03:00am - E 14 18 1010.4 - - - - - - - - -
29/02:30am - E 12 14 1010.4 - - - - - - - - -
29/02:00am - E 10 13 1010.5 - - - - - - - - -
29/01:30am - E 10 12 1010.8 - - - - - - - - -
29/01:00am - E 11 14 1011.0 - - - - - - - - -
29/12:30am - ENE 12 15 1011.4 - - - - - - - - -
29/12:00am - ENE 10 14 1011.8 - - - - - - - - -
 
Date/Time
WST
Temp
°C
Wind Pressure Rain since
9am
mm
Weather Cloud Vis
km
Sea
Height
m
Swell
Dir  Spd
kts
Gust
kts
hPa Trend Height
m
Period
s
Dir
28/11:30pm - ENE 8 11 1012.1 - - - - - - - - -
28/11:00pm - ESE 10 12 1012.3 - - - - - - - - -
28/10:30pm - SE 7 9 1012.5 - - - - - - - - -
28/10:00pm - ESE 6 6 1012.8 - - - - - - - - -
28/09:30pm - SE 6 7 1012.9 - - - - - - - - -
28/09:00pm - E 5 7 1013.2 - - - - - - - - -
28/08:30pm - ESE 6 7 1013.2 - - - - - - - - -
28/08:00pm - SE 7 8 1013.1 - - - - - - - - -
28/07:30pm - ENE 9 11 1012.9 - - - - - - - - -
28/07:00pm - ENE 10 11 1012.7 - - - - - - - - -
28/06:30pm - E 8 10 1012.7 - - - - - - - - -
28/06:00pm - E 10 12 1012.5 - - - - - - - - -
28/05:30pm - ESE 6 10 1012.4 - - - - - - - - -
28/05:00pm - ESE 8 11 1012.1 - - - - - - - - -
28/04:30pm - SE 9 12 1011.9 - - - - - - - - -
28/04:00pm - SE 9 11 1011.5 - - - - - - - - -
28/03:30pm - ESE 9 12 1011.2 - - - - - - - - -
28/03:00pm - ESE 11 14 1011.1 - - - - - - - - -
28/02:30pm - ENE 10 13 1011.0 - - - - - - - - -
28/02:00pm - E 11 14 1010.9 - - - - - - - - -
28/01:30pm - ENE 11 13 1011.2 - - - - - - - - -
28/01:00pm - E 9 13 1011.2 - - - - - - - - -
28/12:30pm - E 11 15 1011.5 - - - - - - - - -
28/12:00pm - E 12 15 1011.9 - - - - - - - - -
28/11:30am - E 13 16 1012.5 - - - - - - - - -
28/11:00am - E 14 17 1012.6 - - - - - - - - -
28/10:30am - E 13 17 1013.0 - - - - - - - - -
28/10:00am - E 15 19 1013.3 - - - - - - - - -
28/09:30am - ESE 15 18 1013.2 - - - - - - - - -
28/09:00am - E 13 17 1013.1 - - - - - - - - -
28/08:30am - E 13 17 1012.9 - - - - - - - - -
28/08:00am - ESE 1 4 1012.8 - - - - - - - - -
28/07:30am - ESE 3 6 1012.7 - - - - - - - - -
28/07:00am - SE 3 4 1012.4 - - - - - - - - -
28/06:30am - SE 2 4 1012.2 - - - - - - - - -
28/06:00am - CALM 0 1 1012.0 - - - - - - - - -
28/05:30am - CALM 0 3 1011.8 - - - - - - - - -
28/05:00am - CALM 0 1 1011.5 - - - - - - - - -
28/04:30am - CALM 0 2 1011.3 - - - - - - - - -
28/04:00am - NNW 4 4 1011.2 - - - - - - - - -
28/03:30am - NNW 5 5 1011.3 - - - - - - - - -
28/03:00am - NNW 6 7 1011.2 - - - - - - - - -
28/02:30am - NNW 5 6 1011.2 - - - - - - - - -
28/02:00am - WNW 6 7 1011.2 - - - - - - - - -
28/01:30am - NW 6 7 1011.1 - - - - - - - - -
28/01:00am - WNW 4 6 1011.1 - - - - - - - - -
28/12:30am - WSW 4 5 1011.4 - - - - - - - - -
28/12:00am - CALM 0 2 1012.1 - - - - - - - - -
 
Date/Time
WST
Temp
°C
Wind Pressure Rain since
9am
mm
Weather Cloud Vis
km
Sea
Height
m
Swell
Dir  Spd
kts
Gust
kts
hPa Trend Height
m
Period
s
Dir
27/11:30pm - NE 2 7 1012.5 - - - - - - - - -
27/11:00pm - CALM 0 1 1012.4 - - - - - - - - -
27/10:30pm - CALM 0 2 1012.4 - - - - - - - - -
27/10:00pm - E 4 6 1012.9 - - - - - - - - -
27/09:30pm - ENE 1 3 1012.6 - - - - - - - - -
27/09:00pm - ESE 2 3 1012.6 - - - - - - - - -
27/08:30pm - S 4 5 1012.7 - - - - - - - - -
27/08:00pm - W 2 4 1012.4 - - - - - - - - -
27/07:30pm - CALM 0 3 1012.0 - - - - - - - - -
27/07:00pm - CALM 0 1 1011.4 - - - - - - - - -
27/06:30pm - CALM 0 3 1011.2 - - - - - - - - -
27/06:00pm - E 4 5 1011.0 - - - - - - - - -
27/05:30pm - ESE 4 5 1010.8 - - - - - - - - -
27/05:00pm - E 5 7 1010.4 - - - - - - - - -
27/04:30pm - E 6 8 1010.0 - - - - - - - - -
27/04:00pm - E 7 9 1009.6 - - - - - - - - -
27/03:30pm - ENE 8 9 1009.5 - - - - - - - - -
27/03:00pm - E 9 11 1009.5 - - - - - - - - -
27/02:30pm - ENE 11 14 1009.2 - - - - - - - - -
27/02:00pm - ENE 10 12 1009.2 - - - - - - - - -
27/01:30pm - ENE 11 14 1009.5 - - - - - - - - -
27/01:00pm - NE 14 18 1009.6 - - - - - - - - -

Other Formats:

Comma delimited format used in spreadsheet applications
http://www.bom.gov.au/fwo/IDW60701/IDW60701.94210.axf

JavaScript Object Notation format (JSON) in row-major order
http://www.bom.gov.au/fwo/IDW60701/IDW60701.94210.json